Port Lavaca, TX

10:36 PM CDT on June 29, 2015 (GMT -0500)
J.S. Farms - 7 miles west of Port Lavaca | | Change Station
CLOSE
Current Station
Personal Weather Station
Location: Port Lavaca, TX
Elevation: 43 ft
Nearby Weather Stations
Active Advisory: Flood Warning

Elev 43 ft 28.60 °N, 96.73 °W | Updated 12 minutes ago

Clear
Clear
79.3 °F
Feels Like 84 °F
N
0.0
Wind Variable Wind from SE
Gusts 0.0 mph

Today
High -- | Low -- °F
--% Chance of Precip.
Yesterday
High -- | Low -- °F
Precip. -- in
6:31 AM 8:28 PM
Waxing Gibbous, 95% visible
Pressure 29.98 in
Visibility 7.0 miles
Clouds Clear
Heat Index 84 °F
Dew Point 76 °F
Humidity 90%
Rainfall in
Snow Depth Not available.
UV 0 out of 12
Pollen 3.70 out of 12
Air Quality Not available.
Flu Activity Local Activity
METAR KPKV 300244Z AUTO 14003KT 7SM CLR 26/24 A2998 RMK AO2

More Conditions Fewer Conditions

Pressure 29.98 in
Visibility 7.0 miles
Clouds Clear
Heat Index 84 °F
Dew Point 76 °F
Humidity 90%
Rainfall in
Snow Depth Not available.
UV 0 out of 12
Pollen 3.70 out of 12
Air Quality Not available.
Flu Activity Local Activity
METAR KPKV 300244Z AUTO 14003KT 7SM CLR 26/24 A2998 RMK AO2

More Conditions Fewer Conditions

10-Day Weather Forecast

×

Almanac

Astronomy

Jun. 29, 2015 Rise Set
Actual Time
Civil Twilight
Nautical Twilight
Astronomical Twilight
Moon
Length of Visible Light
Length of Day
Tomorrow will be .
, % of the Moon is Illuminated

Today's Extremes

State Highs State Lows

Community

WunderPhotos

Upload Photos

1,833,955 photos uploaded!

WunderBlogs® & News

Nearby

Air Quality

  Air Quality AQ Index Pollutant
Not available.

Snow Depth

Station Depth Elevation

Earthquake Activity

City Distance Mag. Time & Date
Minimum magnitude displayed is 2.5.

Coastal Water Temperatures

Place Temperature

Stations

Nearby Weather Stations

Station Location Temp. Windchill Dew Point Humidity Wind Precip. Elev Updated Type
                   
Flood Warning
Statement as of 9:28 PM CDT on June 29, 2015

The Flood Warning continues for the Guadalupe River near Bloomington.
* Until further notice... or until the warning is cancelled.
* At 9 PM Monday... the stage was 24.0 feet.
* Moderate flooding is occurring and moderate flooding is forecast.
* Flood stage is 20.0 feet.
* Forecast: the river will continue a very slow fall, dropping to
22.2 feet by Saturday evening.
* At 24.0 feet, moderate lowland flooding occurs, with the river
reaching well into the flood plain. Any oil tank batteries, pump
jacks, and secondary roads near the river may be flooded.


Below are the latest river stages and stage forecasts:

                      fld latest forecast 6 am lst
location stg stg day time Tue Wed Thu Fri Sat

Guadalupe River
Bloomington 20 24.0 Mon 9 PM 23.9 23.5 23.2 22.8 22.4


Lat... Lon 2869 9704 2869 9698 2867 9695 2857 9688
      2845 9680 2843 9685